Time;durP1;ratioP1;P1;durP2;ratioP2;P2;SDS_P1;SDS_P2;PMS_P1;PMS_P2;Temp;Humidity;BMP_temperature;BMP_pressure;BME280_temperature;BME280_humidity;BME280_pressure;Samples;Min_cycle;Max_cycle;Signal;HPM_P1;HPM_P2
2022/05/07 00:02:37;;;;;;;31.25;22.52;;;;;;;;;;5133450;27;20532;-89
2022/05/07 00:05:21;;;;;;;30.58;21.88;;;;;;;;;;5133528;27;20060;-90
2022/05/07 00:08:09;;;;;;;32.78;21.83;;;;;;;;;;5119577;27;20085;-90
2022/05/07 00:10:54;;;;;;;37.28;24.02;;;;;;;;;;5133744;27;20390;-90
2022/05/07 00:13:39;;;;;;;35.80;23.80;;;;;;;;;;5133522;27;20038;-89
2022/05/07 00:19:27;;;;;;;32.30;23.83;;;;;;;;;;5136186;27;20080;-89
2022/05/07 00:22:15;;;;;;;34.42;24.55;;;;;;;;;;5135491;27;20038;-90
2022/05/07 00:25:01;;;;;;;38.25;25.52;;;;;;;;;;5135870;27;20507;-89
2022/05/07 00:27:48;;;;;;;34.95;24.77;;;;;;;;;;5135972;27;20505;-89
2022/05/07 00:30:35;;;;;;;35.97;24.63;;;;;;;;;;5142433;27;20069;-88
2022/05/07 00:33:20;;;;;;;29.13;22.20;;;;;;;;;;5158912;27;20069;-90
2022/05/07 00:36:05;;;;;;;32.95;22.67;;;;;;;;;;5158903;27;20025;-90
2022/05/07 00:38:50;;;;;;;33.50;23.33;;;;;;;;;;5143846;27;20042;-88
2022/05/07 00:41:35;;;;;;;33.55;23.98;;;;;;;;;;5158383;27;20058;-89
2022/05/07 00:44:22;;;;;;;36.42;25.15;;;;;;;;;;5158897;27;20068;-88
2022/05/07 00:47:16;;;;;;;36.80;23.42;;;;;;;;;;5158583;27;20022;-90
2022/05/07 00:53:05;;;;;;;33.83;23.30;;;;;;;;;;5157616;27;20075;-90
2022/05/07 00:55:50;;;;;;;34.13;24.55;;;;;;;;;;5157837;27;20025;-88
2022/05/07 00:58:35;;;;;;;34.47;24.38;;;;;;;;;;5158352;28;20019;-89
2022/05/07 01:01:20;;;;;;;32.70;24.20;;;;;;;;;;5157672;28;20057;-89
2022/05/07 01:04:07;;;;;;;33.30;23.73;;;;;;;;;;5144549;28;20088;-87
2022/05/07 01:06:52;;;;;;;37.40;26.17;;;;;;;;;;5141226;28;20014;-88
2022/05/07 01:09:37;;;;;;;38.85;25.58;;;;;;;;;;5143627;28;20088;-89
2022/05/07 01:12:22;;;;;;;34.53;24.95;;;;;;;;;;5143236;28;20034;-89
2022/05/07 01:15:10;;;;;;;32.63;22.88;;;;;;;;;;5141737;28;20042;-91
2022/05/07 01:17:56;;;;;;;31.98;23.30;;;;;;;;;;5142750;28;20085;-89
2022/05/07 01:20:41;;;;;;;31.75;23.45;;;;;;;;;;5141598;28;20034;-89
2022/05/07 01:23:28;;;;;;;35.97;23.50;;;;;;;;;;5142007;28;20486;-90
2022/05/07 01:26:14;;;;;;;34.28;24.08;;;;;;;;;;5141722;28;20080;-88
2022/05/07 01:29:07;;;;;;;33.53;23.00;;;;;;;;;;5143041;28;20069;-90
2022/05/07 01:31:51;;;;;;;32.15;23.15;;;;;;;;;;5145078;27;20642;-89
2022/05/07 01:34:38;;;;;;;34.00;23.35;;;;;;;;;;5146038;27;20528;-89
2022/05/07 01:37:25;;;;;;;31.42;22.48;;;;;;;;;;5133192;27;20045;-90
2022/05/07 01:40:11;;;;;;;31.77;22.20;;;;;;;;;;5149021;27;20037;-89
2022/05/07 01:42:58;;;;;;;31.17;21.42;;;;;;;;;;5148571;27;20536;-90
2022/05/07 01:45:43;;;;;;;32.28;23.02;;;;;;;;;;5146121;27;20050;-88
2022/05/07 01:48:31;;;;;;;29.40;22.10;;;;;;;;;;5147068;27;20046;-88
2022/05/07 01:51:16;;;;;;;33.83;22.92;;;;;;;;;;5147702;27;20037;-89
2022/05/07 01:54:00;;;;;;;32.60;21.85;;;;;;;;;;5148824;27;20087;-89
2022/05/07 01:56:44;;;;;;;32.28;22.48;;;;;;;;;;5148414;27;20080;-89
2022/05/07 01:59:29;;;;;;;34.30;22.75;;;;;;;;;;5147900;27;20100;-90
2022/05/07 02:02:14;;;;;;;28.25;21.45;;;;;;;;;;5145886;27;20029;-89
2022/05/07 02:05:00;;;;;;;27.95;21.88;;;;;;;;;;5144805;27;20433;-89
2022/05/07 02:07:45;;;;;;;31.65;22.85;;;;;;;;;;5142595;27;20084;-89
2022/05/07 02:10:30;;;;;;;31.33;21.88;;;;;;;;;;5137117;27;20034;-89
2022/05/07 02:13:14;;;;;;;28.90;22.95;;;;;;;;;;5136929;27;20038;-89
2022/05/07 02:16:06;;;;;;;32.15;22.95;;;;;;;;;;5136091;27;20030;-89
2022/05/07 02:18:53;;;;;;;29.67;23.25;;;;;;;;;;5121088;27;20034;-89
2022/05/07 02:21:47;;;;;;;31.40;22.48;;;;;;;;;;5135979;27;20038;-90
2022/05/07 02:24:31;;;;;;;31.02;23.25;;;;;;;;;;5135671;27;20558;-89
2022/05/07 02:27:29;;;;;;;33.25;23.27;;;;;;;;;;5135700;27;20079;-89
2022/05/07 02:30:14;;;;;;;33.97;23.20;;;;;;;;;;5122164;27;20111;-89
2022/05/07 02:32:59;;;;;;;30.10;23.63;;;;;;;;;;5135208;27;20502;-88
2022/05/07 02:35:43;;;;;;;33.97;23.15;;;;;;;;;;5135097;27;20080;-89
2022/05/07 02:38:28;;;;;;;30.90;22.20;;;;;;;;;;5135401;27;20025;-90
2022/05/07 02:44:16;;;;;;;31.90;22.13;;;;;;;;;;5136659;27;20123;-89
2022/05/07 02:47:04;;;;;;;29.23;21.45;;;;;;;;;;5134922;27;20313;-89
2022/05/07 02:49:49;;;;;;;27.90;21.60;;;;;;;;;;5133919;27;20038;-89
2022/05/07 02:52:34;;;;;;;24.83;20.40;;;;;;;;;;5136115;27;20042;-89
2022/05/07 02:55:19;;;;;;;26.50;20.65;;;;;;;;;;5135104;27;20123;-90
2022/05/07 02:58:04;;;;;;;31.98;20.38;;;;;;;;;;5134671;27;20034;-89
2022/05/07 03:00:49;;;;;;;27.85;20.42;;;;;;;;;;5134624;27;20056;-89
2022/05/07 03:03:34;;;;;;;27.30;20.83;;;;;;;;;;5134877;27;20042;-90
2022/05/07 03:06:21;;;;;;;25.92;21.23;;;;;;;;;;5134889;27;20030;-89
2022/05/07 03:09:07;;;;;;;29.00;21.45;;;;;;;;;;5134345;27;20057;-91
2022/05/07 03:11:51;;;;;;;26.70;20.70;;;;;;;;;;5134536;27;20425;-90
2022/05/07 03:14:36;;;;;;;29.17;21.10;;;;;;;;;;5134725;27;20042;-89
2022/05/07 03:17:23;;;;;;;30.92;22.00;;;;;;;;;;5135716;27;20070;-90
2022/05/07 03:20:13;;;;;;;28.38;21.00;;;;;;;;;;5134087;27;20080;-89
2022/05/07 03:22:58;;;;;;;31.67;21.83;;;;;;;;;;5134141;27;20497;-90
2022/05/07 03:25:43;;;;;;;30.38;22.35;;;;;;;;;;5120169;27;20080;-89
2022/05/07 03:28:27;;;;;;;27.55;21.35;;;;;;;;;;5137837;27;20477;-90
2022/05/07 03:31:13;;;;;;;27.27;20.27;;;;;;;;;;5140090;27;20034;-90
2022/05/07 03:33:58;;;;;;;26.05;20.67;;;;;;;;;;5139911;27;20117;-89
2022/05/07 03:36:42;;;;;;;28.48;20.83;;;;;;;;;;5140443;27;20042;-89
2022/05/07 03:39:31;;;;;;;26.48;20.70;;;;;;;;;;5140473;27;20041;-90
2022/05/07 03:42:16;;;;;;;25.17;20.58;;;;;;;;;;5126074;27;20037;-89
2022/05/07 03:45:01;;;;;;;26.00;19.65;;;;;;;;;;5139749;27;20111;-90
2022/05/07 03:47:45;;;;;;;25.55;20.17;;;;;;;;;;5140285;27;20042;-89
2022/05/07 03:50:30;;;;;;;28.63;19.90;;;;;;;;;;5140368;27;20521;-90
2022/05/07 03:53:30;;;;;;;26.13;19.70;;;;;;;;;;5139300;27;20486;-89
2022/05/07 03:56:15;;;;;;;24.20;19.67;;;;;;;;;;5139722;27;20112;-89
2022/05/07 03:59:02;;;;;;;24.55;19.33;;;;;;;;;;5155361;27;20049;-90
2022/05/07 04:01:46;;;;;;;26.17;19.42;;;;;;;;;;5139987;27;20055;-89
2022/05/07 04:04:32;;;;;;;28.52;20.33;;;;;;;;;;5139985;27;20038;-91
2022/05/07 04:07:17;;;;;;;27.20;20.90;;;;;;;;;;5139923;27;20038;-90
2022/05/07 04:10:02;;;;;;;23.23;18.48;;;;;;;;;;5139497;27;20065;-89
2022/05/07 04:12:48;;;;;;;25.73;19.27;;;;;;;;;;5139865;27;20530;-90
2022/05/07 04:15:33;;;;;;;26.90;20.05;;;;;;;;;;5125243;27;20452;-90
2022/05/07 04:18:18;;;;;;;26.65;19.63;;;;;;;;;;5154934;27;20107;-90
2022/05/07 04:21:03;;;;;;;22.88;18.60;;;;;;;;;;5139327;27;20105;-90
2022/05/07 04:23:50;;;;;;;21.95;18.35;;;;;;;;;;5139414;27;20111;-90
2022/05/07 04:26:34;;;;;;;27.38;20.02;;;;;;;;;;5124943;27;20053;-89
2022/05/07 04:29:21;;;;;;;24.83;18.08;;;;;;;;;;5138964;27;20053;-89
2022/05/07 04:32:06;;;;;;;25.95;20.35;;;;;;;;;;5124843;27;20099;-90
2022/05/07 04:34:51;;;;;;;23.98;19.05;;;;;;;;;;5139448;27;20128;-90
2022/05/07 04:37:36;;;;;;;21.95;18.23;;;;;;;;;;5139360;27;20079;-90
2022/05/07 04:40:21;;;;;;;24.83;20.00;;;;;;;;;;5139061;27;20041;-90
2022/05/07 04:43:05;;;;;;;26.80;20.75;;;;;;;;;;5138868;27;20517;-89
2022/05/07 04:45:50;;;;;;;25.80;19.55;;;;;;;;;;5139182;27;20041;-89
2022/05/07 04:48:34;;;;;;;27.88;19.77;;;;;;;;;;5139038;27;20033;-90
2022/05/07 04:51:19;;;;;;;28.38;20.05;;;;;;;;;;5138794;27;20057;-89
2022/05/07 04:54:03;;;;;;;24.20;19.63;;;;;;;;;;5138724;27;20137;-91
2022/05/07 04:56:49;;;;;;;30.75;20.13;;;;;;;;;;5124788;27;20129;-90
2022/05/07 04:59:33;;;;;;;28.27;19.75;;;;;;;;;;5139130;27;20085;-91
2022/05/07 05:02:18;;;;;;;29.50;20.75;;;;;;;;;;5138629;27;20493;-89
2022/05/07 05:05:02;;;;;;;27.42;20.20;;;;;;;;;;5139077;27;20050;-90
2022/05/07 05:07:49;;;;;;;27.05;20.13;;;;;;;;;;5143384;27;20460;-90
2022/05/07 05:10:37;;;;;;;27.98;20.95;;;;;;;;;;5143448;27;20030;-89
2022/05/07 05:13:24;;;;;;;27.30;19.85;;;;;;;;;;5142900;27;20056;-90
2022/05/07 05:16:10;;;;;;;27.00;22.27;;;;;;;;;;5158163;27;20075;-90
2022/05/07 05:18:54;;;;;;;25.67;21.73;;;;;;;;;;5143099;27;20045;-89
2022/05/07 05:22:01;;;;;;;27.85;21.40;;;;;;;;;;5128545;27;20038;-90
2022/05/07 05:24:46;;;;;;;29.30;21.90;;;;;;;;;;5143152;27;20505;-90
2022/05/07 05:27:31;;;;;;;29.33;22.27;;;;;;;;;;5143064;27;20034;-89
2022/05/07 05:30:16;;;;;;;26.50;21.42;;;;;;;;;;5133721;27;20135;-90
2022/05/07 05:33:02;;;;;;;25.38;20.70;;;;;;;;;;5122290;27;20041;-90
2022/05/07 05:35:47;;;;;;;27.17;20.90;;;;;;;;;;5136599;27;20168;-89
2022/05/07 05:38:32;;;;;;;25.40;19.67;;;;;;;;;;5122304;27;20042;-90
2022/05/07 05:41:22;;;;;;;24.48;19.70;;;;;;;;;;5137234;27;20034;-90
2022/05/07 05:44:07;;;;;;;26.33;20.77;;;;;;;;;;5135964;27;20104;-90
2022/05/07 05:46:52;;;;;;;26.38;21.00;;;;;;;;;;5136246;27;20076;-89
2022/05/07 05:49:37;;;;;;;23.40;20.10;;;;;;;;;;5136314;27;20033;-90
2022/05/07 05:52:22;;;;;;;25.30;20.33;;;;;;;;;;5136107;27;20437;-90
2022/05/07 05:55:06;;;;;;;27.23;20.90;;;;;;;;;;5136356;27;20038;-91
2022/05/07 05:57:51;;;;;;;23.67;20.33;;;;;;;;;;5136478;27;20038;-90
2022/05/07 06:00:37;;;;;;;23.65;18.90;;;;;;;;;;5136221;27;20072;-90
2022/05/07 06:03:22;;;;;;;27.02;20.10;;;;;;;;;;5135646;27;20090;-89
2022/05/07 06:06:07;;;;;;;24.17;18.35;;;;;;;;;;5136001;27;20039;-90
2022/05/07 06:08:51;;;;;;;25.98;19.95;;;;;;;;;;5136265;27;20053;-90
2022/05/07 06:11:36;;;;;;;23.65;19.40;;;;;;;;;;5137205;27;20489;-90
2022/05/07 06:14:21;;;;;;;23.40;20.23;;;;;;;;;;5135547;27;20083;-90
2022/05/07 06:17:05;;;;;;;28.52;19.83;;;;;;;;;;5135421;27;20092;-89
2022/05/07 06:19:50;;;;;;;25.50;19.88;;;;;;;;;;5135710;27;20034;-90
2022/05/07 06:22:34;;;;;;;26.52;19.58;;;;;;;;;;5135251;27;20038;-90
2022/05/07 06:28:25;;;;;;;25.52;20.33;;;;;;;;;;5136386;27;20037;-90
2022/05/07 06:31:13;;;;;;;28.73;21.00;;;;;;;;;;5141506;27;20114;-90
2022/05/07 06:33:58;;;;;;;27.38;19.90;;;;;;;;;;5141560;27;20042;-90
2022/05/07 06:36:46;;;;;;;24.23;19.88;;;;;;;;;;5141487;27;20171;-92
2022/05/07 06:39:31;;;;;;;26.08;20.58;;;;;;;;;;5141138;27;20041;-90
2022/05/07 06:42:16;;;;;;;27.10;19.73;;;;;;;;;;5141035;27;20073;-89
2022/05/07 06:45:01;;;;;;;24.17;19.85;;;;;;;;;;5141307;27;20402;-89
2022/05/07 06:47:46;;;;;;;24.05;18.92;;;;;;;;;;5141150;27;20079;-91
2022/05/07 06:50:33;;;;;;;23.27;19.92;;;;;;;;;;5140796;27;20067;-89
2022/05/07 06:53:18;;;;;;;22.45;19.95;;;;;;;;;;5140808;27;20123;-89
2022/05/07 06:56:06;;;;;;;23.80;20.27;;;;;;;;;;5156976;27;20505;-90
2022/05/07 06:58:53;;;;;;;26.02;19.55;;;;;;;;;;5141209;27;20034;-89
2022/05/07 07:01:38;;;;;;;27.15;20.08;;;;;;;;;;5140618;27;20082;-90
2022/05/07 07:04:23;;;;;;;28.45;20.77;;;;;;;;;;5140362;27;20545;-88
2022/05/07 07:07:08;;;;;;;24.40;19.17;;;;;;;;;;5126543;27;20107;-89
2022/05/07 07:09:53;;;;;;;27.83;20.35;;;;;;;;;;5126321;27;20072;-89
2022/05/07 07:12:40;;;;;;;22.45;18.75;;;;;;;;;;5140242;27;20118;-90
2022/05/07 07:15:25;;;;;;;24.80;19.08;;;;;;;;;;5140136;27;20505;-89
2022/05/07 07:18:10;;;;;;;26.60;19.17;;;;;;;;;;5140630;27;20085;-89
2022/05/07 07:20:55;;;;;;;22.30;17.92;;;;;;;;;;5140715;27;20083;-90
2022/05/07 07:23:40;;;;;;;22.67;17.80;;;;;;;;;;5140014;27;20083;-89
2022/05/07 07:26:27;;;;;;;25.23;18.02;;;;;;;;;;5140277;27;20114;-89
2022/05/07 07:29:12;;;;;;;22.42;17.52;;;;;;;;;;5125367;27;20061;-90
2022/05/07 07:31:56;;;;;;;21.60;17.63;;;;;;;;;;5140495;27;20505;-88
2022/05/07 07:34:43;;;;;;;24.08;17.92;;;;;;;;;;5140058;27;20080;-89
2022/05/07 07:37:32;;;;;;;19.50;15.93;;;;;;;;;;5139726;27;20571;-88
2022/05/07 07:40:17;;;;;;;23.63;19.38;;;;;;;;;;5140235;27;20041;-90
2022/05/07 07:43:01;;;;;;;24.85;18.10;;;;;;;;;;5140305;27;20058;-88
2022/05/07 07:48:50;;;;;;;24.38;18.77;;;;;;;;;;5155916;27;20034;-89
2022/05/07 07:51:39;;;;;;;25.67;18.30;;;;;;;;;;5139582;27;20033;-89
2022/05/07 07:54:23;;;;;;;22.83;17.90;;;;;;;;;;5139520;27;20497;-89
2022/05/07 07:57:16;;;;;;;26.45;19.50;;;;;;;;;;5140001;27;20038;-90
2022/05/07 08:00:01;;;;;;;22.95;19.20;;;;;;;;;;5127386;27;20038;-89
2022/05/07 08:02:59;;;;;;;26.67;18.67;;;;;;;;;;5139501;27;20549;-90
2022/05/07 08:05:45;;;;;;;27.88;19.40;;;;;;;;;;5139200;27;20053;-89
2022/05/07 08:11:44;;;;;;;23.55;20.45;;;;;;;;;;5154847;27;20554;-89
2022/05/07 08:14:29;;;;;;;24.27;19.10;;;;;;;;;;5139007;27;20037;-89
2022/05/07 08:17:17;;;;;;;27.60;19.92;;;;;;;;;;5139569;27;20117;-89
2022/05/07 08:20:01;;;;;;;25.70;18.83;;;;;;;;;;5139575;27;20038;-89
2022/05/07 08:22:46;;;;;;;28.50;20.33;;;;;;;;;;5139075;27;20117;-90
2022/05/07 08:25:30;;;;;;;24.90;20.17;;;;;;;;;;5138841;27;20091;-89
2022/05/07 08:28:19;;;;;;;23.92;19.92;;;;;;;;;;5139317;27;20090;-88
2022/05/07 08:31:09;;;;;;;28.48;20.63;;;;;;;;;;5139418;27;20179;-88
2022/05/07 08:33:54;;;;;;;26.23;20.33;;;;;;;;;;5139444;27;20041;-89
2022/05/07 08:36:39;;;;;;;24.70;20.10;;;;;;;;;;5138863;27;20075;-90
2022/05/07 08:39:27;;;;;;;26.00;20.15;;;;;;;;;;5139040;27;20034;-90
2022/05/07 08:42:14;;;;;;;25.25;19.30;;;;;;;;;;5139021;27;20041;-89
2022/05/07 08:44:59;;;;;;;24.75;18.88;;;;;;;;;;5138977;27;20073;-89
2022/05/07 08:47:44;;;;;;;26.70;19.25;;;;;;;;;;5138379;27;20045;-91
2022/05/07 08:50:29;;;;;;;32.58;19.52;;;;;;;;;;5138860;27;20118;-90
2022/05/07 08:53:18;;;;;;;26.52;19.48;;;;;;;;;;5138848;27;20046;-90
2022/05/07 08:56:04;;;;;;;21.10;17.75;;;;;;;;;;5124865;27;20073;-90
2022/05/07 08:58:51;;;;;;;23.88;18.05;;;;;;;;;;5124029;27;20077;-91
2022/05/07 09:01:36;;;;;;;21.52;17.42;;;;;;;;;;5138302;27;20030;-90
2022/05/07 09:04:24;;;;;;;25.77;17.13;;;;;;;;;;5138625;27;20041;-90
2022/05/07 09:07:15;;;;;;;25.42;17.27;;;;;;;;;;5138846;27;20041;-89
2022/05/07 09:10:05;;;;;;;23.75;16.77;;;;;;;;;;5138958;27;20394;-90
2022/05/07 09:12:56;;;;;;;22.75;17.55;;;;;;;;;;5138387;27;20033;-90
2022/05/07 09:16:01;;;;;;;20.85;17.08;;;;;;;;;;5138433;27;20034;-89
2022/05/07 09:18:45;;;;;;;;;;;18.00;99.90;;;;;;5138953;27;20155;-90
2022/05/07 09:21:32;;;;;;;20.95;17.17;;;;;;;;;;5138714;27;19957;-90
2022/05/07 09:24:18;;;;;;;25.67;17.85;;;;;;;;;;5138508;27;20041;-89
2022/05/07 09:27:03;;;;;;;21.17;18.08;;;;;;;;;;5138510;27;20104;-89
2022/05/07 09:30:04;;;;;;;21.75;17.45;;;;;;;;;;5138042;27;20494;-89
2022/05/07 09:32:51;;;;;;;24.80;18.17;;;;;;;;;;5138108;27;20038;-90
2022/05/07 09:35:47;;;;;;;22.15;17.70;;;;;;;;;;5138470;27;20118;-90
2022/05/07 09:38:34;;;;;;;24.80;17.52;;;;;;;;;;5125924;27;20033;-90
2022/05/07 09:41:21;;;;;;;27.05;15.90;;;;;;;;;;5138570;27;20034;-89
2022/05/07 09:44:10;;;;;;;22.45;16.88;;;;;;;;;;5138375;27;20412;-90
2022/05/07 09:46:58;;;;;;;34.47;17.90;;;;;;;;;;5137951;27;20078;-89
2022/05/07 09:58:54;;;;;;;21.60;16.25;;;;;;;;;;5157432;27;20443;-90
2022/05/07 10:01:42;;;;;;;28.17;15.88;;;;;;;;;;5142027;27;20079;-88
2022/05/07 10:04:42;;;;;;;25.02;16.67;;;;;;;;;;5141867;27;20081;-91
2022/05/07 10:07:38;;;;;;;21.30;15.77;;;;;;;;;;5141877;27;20054;-89
2022/05/07 10:10:25;;;;;;;22.02;18.52;;;;;;;;;;5141836;27;20038;-89
2022/05/07 10:13:10;;;;;;;23.77;16.95;;;;;;;;;;5141747;27;20038;-88
2022/05/07 10:15:59;;;;;;;23.05;17.75;;;;;;;;;;5141486;27;20133;-90
2022/05/07 10:18:44;;;;;;;25.98;17.90;;;;;;;;;;5141341;27;20034;-89
2022/05/07 10:21:28;;;;;;;28.02;16.13;;;;;;;;;;5157206;27;20037;-89
2022/05/07 10:24:19;;;;;;;20.92;16.45;;;;;;;;;;5141423;27;20557;-89
2022/05/07 10:27:06;;;;;;;21.08;16.35;;;;;;;;;;5140975;27;20041;-90
2022/05/07 10:29:50;;;;;;;21.23;16.17;;;;;;;;;;5126560;27;20107;-90
2022/05/07 10:32:53;;;;;;;23.10;16.15;;;19.70;99.90;;;;;;5141569;27;20092;-89
2022/05/07 10:35:42;;;;;;;22.17;17.08;;;;;;;;;;5141349;27;20080;-90
2022/05/07 10:38:28;;;;;;;20.48;15.65;;;;;;;;;;5141371;27;20087;-89
2022/05/07 10:41:23;;;;;;;18.55;15.07;;;;;;;;;;5141357;27;20037;-89
2022/05/07 10:44:11;;;;;;;18.77;14.77;;;;;;;;;;5140657;27;20095;-88
2022/05/07 10:46:55;;;;;;;20.50;14.40;;;;;;;;;;5140907;27;20038;-89
2022/05/07 10:50:10;;;;;;;21.58;15.60;;;20.00;99.40;;;;;;5141390;27;20030;-90
2022/05/07 10:52:56;;;;;;;21.20;15.43;;;;;;;;;;5140559;27;20034;-89
2022/05/07 10:55:41;;;;;;;19.73;14.52;;;;;;;;;;5141072;27;20064;-88
2022/05/07 10:58:29;;;;;;;21.45;15.52;;;;;;;;;;5140885;27;20079;-89
2022/05/07 11:01:14;;;;;;;19.58;14.52;;;;;;;;;;5140774;27;20033;-89
2022/05/07 11:04:04;;;;;;;21.42;16.20;;;;;;;;;;5139132;27;20053;-88
2022/05/07 11:06:50;;;;;;;30.05;22.55;;;;;;;;;;5140312;27;20042;-89
2022/05/07 11:09:37;;;;;;;31.30;22.52;;;;;;;;;;5140529;27;20055;-88
2022/05/07 11:12:26;;;;;;;29.08;21.13;;;;;;;;;;5140583;27;20041;-88
2022/05/07 11:15:23;;;;;;;30.67;23.27;;;;;;;;;;5140060;27;20115;-89
2022/05/07 11:18:19;;;;;;;33.35;23.40;;;;;;;;;;5140083;27;20090;-89
2022/05/07 11:21:04;;;;;;;29.08;22.15;;;;;;;;;;5139917;27;20083;-88
2022/05/07 11:23:55;;;;;;;33.20;23.33;;;;;;;;;;5140299;27;20034;-88
2022/05/07 11:26:41;;;;;;;28.70;22.40;;;;;;;;;;5140787;27;20051;-87
2022/05/07 11:29:31;;;;;;;31.45;22.60;;;;;;;;;;5131829;27;20096;-88
2022/05/07 11:32:16;;;;;;;33.97;24.08;;;;;;;;;;5135525;27;20088;-89
2022/05/07 11:35:01;;;;;;;32.05;23.38;;;;;;;;;;5134838;27;20122;-89
2022/05/07 11:37:46;;;;;;;31.45;22.95;;;;;;;;;;5134268;27;20041;-88
2022/05/07 11:40:32;;;;;;;33.10;22.60;;;;;;;;;;5133927;27;20391;-89
2022/05/07 11:46:24;;;;;;;28.52;19.67;;;;;;;;;;5134671;27;20074;-88
2022/05/07 11:49:10;;;;;;;28.45;21.17;;;;;;;;;;5133375;27;20212;-88
2022/05/07 11:52:08;;;;;;;30.95;23.00;;;;;;;;;;5134088;27;20076;-89
2022/05/07 11:54:55;;;;;;;31.65;21.63;;;;;;;;;;5133690;27;20088;-89
2022/05/07 11:57:44;;;;;;;32.65;22.25;;;;;;;;;;5133525;27;20086;-88
2022/05/07 12:00:30;;;;;;;32.13;22.05;;;;;;;;;;5133770;27;20034;-88
2022/05/07 12:03:21;;;;;;;37.60;21.70;;;;;;;;;;5133238;27;20038;-90
2022/05/07 12:06:07;;;;;;;29.10;20.75;;;;;;;;;;5133137;27;20053;-90
2022/05/07 12:08:53;;;;;;;35.05;22.67;;;;;;;;;;5133636;27;20403;-89
2022/05/07 12:11:42;;;;;;;39.72;24.10;;;;;;;;;;5133278;27;20123;-89
2022/05/07 12:14:27;;;;;;;30.92;22.75;;;;;;;;;;5133073;27;20057;-89
2022/05/07 12:20:15;;;;;;;28.23;20.73;;;;;;;;;;5134120;27;20549;-88
2022/05/07 12:32:13;;;;;;;34.85;21.80;;;;;;;;;;5154502;27;20539;-88
2022/05/07 12:35:01;;;;;;;29.38;20.30;;;;;;;;;;5139276;27;20065;-88
2022/05/07 12:37:46;;;;;;;30.80;18.35;;;;;;;;;;5139226;27;20037;-88
2022/05/07 12:40:39;;;;;;;31.90;18.20;;;;;;;;;;5124476;27;20083;-88
2022/05/07 12:43:29;;;;;;;26.08;17.92;;;;;;;;;;5138523;27;20037;-88
2022/05/07 12:46:14;;;;;;;28.23;18.38;;;;;;;;;;5138664;27;20406;-88
2022/05/07 12:49:02;;;;;;;26.70;18.10;;;;;;;;;;5138714;27;20053;-90
2022/05/07 12:51:47;;;;;;;27.42;18.23;;;;;;;;;;5138644;27;20082;-90
2022/05/07 12:54:34;;;;;;;24.48;16.77;;;;;;;;;;5138660;27;20073;-91
2022/05/07 12:57:27;;;;;;;23.42;15.38;;;;;;;;;;5138353;27;20061;-91
2022/05/07 13:00:12;;;;;;;18.42;12.82;;;;;;;;;;5138471;27;20539;-89
2022/05/07 13:03:01;;;;;;;15.77;11.50;;;;;;;;;;5138794;27;20037;-89
2022/05/07 13:05:48;;;;;;;17.38;11.38;;;;;;;;;;5124752;27;20050;-91
2022/05/07 13:08:33;;;;;;;16.60;12.32;;;;;;;;;;5138574;27;20034;-88
2022/05/07 13:11:18;;;;;;;14.68;9.32;;;;;;;;;;5138221;27;20106;-89
2022/05/07 13:14:08;;;;;;;18.88;9.70;;;;;;;;;;5124487;27;20041;-91
2022/05/07 13:16:53;;;;;;;10.27;8.07;;;;;;;;;;5138665;27;20033;-89
2022/05/07 13:19:40;;;;;;;16.80;10.20;;;;;;;;;;5138627;27;20053;-90
2022/05/07 13:22:32;;;;;;;12.13;9.30;;;;;;;;;;5138114;27;20046;-88
2022/05/07 13:25:18;;;;;;;11.45;9.05;;;;;;;;;;5138047;27;20063;-89
2022/05/07 13:28:03;;;;;;;12.55;9.25;;;;;;;;;;5128367;27;20073;-89
2022/05/07 13:30:50;;;;;;;12.45;8.43;;;;;;;;;;5133930;27;20115;-89
2022/05/07 13:33:38;;;;;;;11.50;8.90;;;;;;;;;;5136585;27;20088;-89
2022/05/07 13:36:24;;;;;;;14.27;10.27;;;;;;;;;;5136230;27;20100;-90
2022/05/07 13:39:35;;;;;;;13.40;9.65;;;;;;;;;;5135970;27;20132;-90
2022/05/07 13:42:20;;;;;;;15.25;10.40;;;;;;;;;;5136136;27;20034;-89
2022/05/07 13:45:14;;;;;;;14.15;10.13;;;;;;;;;;5136108;27;20510;-89
2022/05/07 13:47:58;;;;;;;;;;;20.60;99.90;;;;;;5136826;27;20059;-89
2022/05/07 13:50:43;;;;;;;14.07;9.00;;;;;;;;;;5121592;27;19964;-89
2022/05/07 13:53:34;;;;;;;14.80;8.85;;;;;;;;;;5135311;27;20497;-88
2022/05/07 13:56:21;;;;;;;14.52;10.20;;;;;;;;;;5135470;27;20038;-89
2022/05/07 13:59:22;;;;;;;15.45;9.60;;;;;;;;;;5136194;27;20119;-86
2022/05/07 14:02:12;;;;;;;14.07;10.13;;;;;;;;;;5135980;27;20034;-88
2022/05/07 14:05:30;;;;;;;15.40;11.13;;;;;;;;;;5135880;27;20049;-88
2022/05/07 14:08:15;;;;;;;13.85;10.93;;;;;;;;;;5135277;27;20418;-88
2022/05/07 14:11:01;;;;;;;15.95;11.23;;;;;;;;;;5136018;27;20118;-88
2022/05/07 14:13:46;;;;;;;16.77;9.90;;;;;;;;;;5135759;27;20033;-88
2022/05/07 14:16:35;;;;;;;13.75;9.55;;;;;;;;;;5135289;27;20083;-87
2022/05/07 14:19:20;;;;;;;12.63;8.63;;;;;;;;;;5136347;27;20451;-88
2022/05/07 14:22:12;;;;;;;10.13;6.70;;;;;;;;;;5135868;27;20114;-88
2022/05/07 14:24:57;;;;;;;8.75;5.15;;;;;;;;;;5121458;27;20513;-89
2022/05/07 14:27:44;;;;;;;7.45;4.82;;;;;;;;;;5136118;27;20034;-89
2022/05/07 14:30:31;;;;;;;11.40;6.13;;;;;;;;;;5135334;27;20141;-88
2022/05/07 14:33:21;;;;;;;7.30;4.70;;;;;;;;;;5140834;27;20033;-87
2022/05/07 14:36:06;;;;;;;7.82;5.22;;;;;;;;;;5143679;27;20617;-88
2022/05/07 14:38:51;;;;;;;6.32;4.28;;;;;;;;;;5141656;27;20069;-88
2022/05/07 14:41:36;;;;;;;6.72;3.05;;;;;;;;;;5140869;27;20455;-88
2022/05/07 14:44:20;;;;;;;3.75;2.72;;;;;;;;;;5156345;27;20050;-89
2022/05/07 14:47:23;;;;;;;4.88;2.47;;;;;;;;;;5157364;27;20162;-88
2022/05/07 14:50:11;;;;;;;4.57;2.90;;;;;;;;;;5129650;27;20118;-88
2022/05/07 14:52:56;;;;;;;5.05;3.00;;;;;;;;;;5141472;27;20038;-88
2022/05/07 14:55:58;;;;;;;4.43;2.92;;;;;;;;;;5140709;27;20079;-87
2022/05/07 14:58:53;;;;;;;6.35;3.05;;;;;;;;;;5141464;27;20037;-88
2022/05/07 15:01:41;;;;;;;4.40;3.00;;;;;;;;;;5140635;27;20033;-88
2022/05/07 15:04:26;;;;;;;7.00;3.40;;;;;;;;;;5127409;27;20414;-87
2022/05/07 15:07:14;;;;;;;6.38;3.65;;;;;;;;;;5141790;27;20087;-87
2022/05/07 15:13:02;;;;;;;7.40;4.80;;;;;;;;;;5156621;27;20155;-88
2022/05/07 15:15:47;;;;;;;9.45;5.90;;;;;;;;;;5126415;27;20046;-88
2022/05/07 15:18:39;;;;;;;7.78;5.43;;;;;;;;;;5140421;27;20059;-87
2022/05/07 15:21:29;;;;;;;10.13;5.60;;;;;;;;;;5140569;27;20091;-87
2022/05/07 15:24:30;;;;;;;11.30;5.80;;;;;;;;;;5141249;27;20065;-89
2022/05/07 15:27:15;;;;;;;11.13;5.88;;;;;;;;;;5139181;27;20034;-88
2022/05/07 15:29:59;;;;;;;11.07;5.22;;;;;;;;;;5140617;27;20096;-88
2022/05/07 15:38:56;;;;;;;8.52;5.15;;;;;;;;;;5144264;27;19918;-87
2022/05/07 15:41:42;;;;;;;7.47;4.75;;;;;;;;;;5140387;27;20042;-88
2022/05/07 15:44:35;;;;;;;5.75;3.85;;;;;;;;;;5139993;27;20402;-88
2022/05/07 15:47:21;;;;;;;4.88;3.40;;;;;;;;;;5127424;27;20042;-88
2022/05/07 15:50:24;;;;;;;;;;;;;;;;;;;;;
2022/05/07 15:53:11;;;;;;;5.78;3.63;;;;;;;;;;5143449;27;20088;-87
2022/05/07 15:56:05;;;;;;;4.10;2.83;;;;;;;;;;5140526;27;20055;-89
2022/05/07 15:58:50;;;;;;;5.68;2.75;;;;;;;;;;5127132;27;20042;-88
2022/05/07 16:01:37;;;;;;;4.15;2.50;;;;;;;;;;5140812;27;20587;-89
2022/05/07 16:04:22;;;;;;;4.53;2.75;;;;;;;;;;5128038;27;20081;-87
2022/05/07 16:07:07;;;;;;;5.68;2.78;;;;;;;;;;5159874;27;20048;-88
2022/05/07 16:09:52;;;;;;;4.63;2.80;;;;;;;;;;5160580;27;20030;-88
2022/05/07 16:12:37;;;;;;;5.55;3.33;;;;;;;;;;5161314;27;20098;-86
2022/05/07 16:15:21;;;;;;;7.13;4.60;;;;;;;;;;5161006;27;20410;-88
2022/05/07 16:18:07;;;;;;;7.20;4.50;;;;;;;;;;5157356;27;20115;-88
2022/05/07 16:20:54;;;;;;;8.30;4.90;;;;;;;;;;5166525;27;20496;-87
2022/05/07 16:26:43;;;;;;;7.55;3.88;;;;;;;;;;5155163;27;20050;-87
2022/05/07 16:29:28;;;;;;;5.85;3.33;;;;;;;;;;5139798;27;20440;-87
2022/05/07 16:32:15;;;;;;;5.57;3.05;;;;;;;;;;5139886;27;20123;-87
2022/05/07 16:34:59;;;;;;;7.35;2.65;;;;;;;;;;5139830;27;20099;-88
2022/05/07 16:37:44;;;;;;;4.65;2.58;;;;;;;;;;5139411;27;20091;-87
2022/05/07 16:40:31;;;;;;;5.90;2.63;;;;;;;;;;5139184;27;20099;-88
2022/05/07 16:43:16;;;;;;;7.63;3.00;;;;;;;;;;5139062;27;20402;-87
2022/05/07 16:46:12;;;;;;;6.90;2.60;;;;;;;;;;5139133;27;20042;-87
2022/05/07 16:49:00;;;;;;;7.40;2.80;;;;;;;;;;5124521;27;20523;-88
2022/05/07 16:51:45;;;;;;;5.15;2.70;;;;;;;;;;5138923;27;20463;-89
2022/05/07 16:54:29;;;;;;;7.22;2.83;;;;;;;;;;5138881;27;20037;-87
2022/05/07 16:57:18;;;;;;;6.03;2.90;;;;;;;;;;5139022;27;20087;-87
2022/05/07 17:00:08;;;;;;;6.70;2.50;;;;;;;;;;5154661;27;20041;-86
2022/05/07 17:02:52;;;;;;;6.70;3.60;;;;;;;;;;5124016;27;20046;-87
2022/05/07 17:05:38;;;;;;;8.32;4.25;;;;;;;;;;5138088;27;20406;-88
2022/05/07 17:08:23;;;;;;;6.82;3.33;;;;;;;;;;5138600;27;20034;-88
2022/05/07 17:11:08;;;;;;;6.53;3.33;;;;;;;;;;5138710;27;20071;-89
2022/05/07 17:13:53;;;;;;;11.10;4.05;;;;;;;;;;5137983;27;20038;-87